Time;durP1;ratioP1;P1;durP2;ratioP2;P2;SDS_P1;SDS_P2;PMS_P1;PMS_P2;Temp;Humidity;BMP_temperature;BMP_pressure;BME280_temperature;BME280_humidity;BME280_pressure;Samples;Min_cycle;Max_cycle;Signal;HPM_P1;HPM_P2
2022/05/16 00:02:17;;;;;;;0.10;0.10;;;14.40;99.90;226.50;231333.00;;;;5084715;28;20209;-70
2022/05/16 00:04:49;;;;;;;0.10;0.10;;;14.30;99.90;226.50;231333.00;;;;5064740;28;20746;-70
2022/05/16 00:07:20;;;;;;;0.00;0.00;;;14.20;99.90;226.50;231333.00;;;;5094798;28;20537;-70
2022/05/16 00:09:49;;;;;;;0.00;0.00;;;14.10;99.90;226.50;231333.00;;;;5095386;28;20200;-71
2022/05/16 00:12:18;;;;;;;0.00;0.00;;;14.20;99.90;226.50;231333.00;;;;5090530;28;20217;-70
2022/05/16 00:14:49;;;;;;;0.00;0.00;;;14.20;99.90;226.50;231333.00;;;;5095426;28;20204;-70
2022/05/16 00:17:18;;;;;;;0.10;0.10;;;14.40;99.90;226.50;231333.00;;;;5094540;28;20251;-71
2022/05/16 00:19:47;;;;;;;0.10;0.10;;;14.30;99.90;226.50;231333.00;;;;5095999;28;20596;-70
2022/05/16 00:22:15;;;;;;;0.05;0.05;;;14.30;99.90;226.50;231333.00;;;;5090106;28;20217;-70
2022/05/16 00:24:45;;;;;;;0.00;0.00;;;14.20;99.90;226.50;231333.00;;;;5094886;28;20201;-70
2022/05/16 00:27:14;;;;;;;0.00;0.00;;;14.30;99.90;226.50;231333.00;;;;5094199;28;20242;-70
2022/05/16 00:29:43;;;;;;;0.00;0.00;;;14.20;99.90;226.50;231333.00;;;;5094113;28;20528;-70
2022/05/16 00:32:15;;;;;;;0.10;0.10;;;14.20;99.90;226.50;231333.00;;;;5076068;28;20231;-72
2022/05/16 00:34:43;;;;;;;0.10;0.10;;;14.10;99.90;226.50;231333.00;;;;5094746;28;20205;-72
2022/05/16 00:37:12;;;;;;;0.00;0.00;;;14.10;99.90;226.50;231333.00;;;;5094746;28;20745;-71
2022/05/16 00:39:41;;;;;;;0.10;0.10;;;14.00;99.90;226.50;231333.00;;;;5094908;28;20217;-70
2022/05/16 00:42:13;;;;;;;0.00;0.00;;;13.90;99.90;226.50;231333.00;;;;5094330;28;20943;-70
2022/05/16 00:44:42;;;;;;;0.03;0.03;;;13.80;99.90;226.50;231333.00;;;;5094164;28;20195;-70
2022/05/16 00:47:13;;;;;;;0.10;0.10;;;13.80;99.90;226.50;231333.00;;;;5085980;28;20692;-70
2022/05/16 00:49:47;;;;;;;0.10;0.10;;;13.80;99.90;226.50;231333.00;;;;5077469;28;20259;-71
2022/05/16 00:52:21;;;;;;;0.03;0.03;;;13.80;99.90;226.50;231333.00;;;;5090296;28;20220;-71
2022/05/16 00:54:55;;;;;;;0.10;0.10;;;13.80;99.90;226.50;231333.00;;;;5095978;28;20203;-71
2022/05/16 00:57:32;;;;;;;0.00;0.00;;;13.70;99.90;226.50;231333.00;;;;5096867;28;20218;-71
2022/05/16 01:00:07;;;;;;;0.05;0.05;;;13.70;99.90;226.50;231333.00;;;;5095692;28;20700;-72
2022/05/16 01:05:28;;;;;;;0.10;0.10;;;13.50;99.90;226.50;231333.00;;;;5088084;28;20616;-69
2022/05/16 01:08:01;;;;;;;0.03;0.03;;;13.40;99.90;226.50;231333.00;;;;5095131;28;20239;-70
2022/05/16 01:10:30;;;;;;;0.10;0.10;;;13.40;99.90;226.50;231333.00;;;;5093960;28;20196;-69
2022/05/16 01:13:00;;;;;;;0.10;0.10;;;13.40;99.90;226.50;231333.00;;;;5093590;28;20209;-69
2022/05/16 01:15:34;;;;;;;0.10;0.10;;;13.30;99.90;226.50;231333.00;;;;5094440;28;20193;-69
2022/05/16 01:18:05;;;;;;;0.00;0.00;;;13.30;99.90;226.50;231333.00;;;;5093785;28;20298;-70
2022/05/16 01:21:12;;;;;;;0.10;0.10;;;13.20;99.90;226.50;231333.00;;;;5093564;28;20193;-69
2022/05/16 01:23:49;;;;;;;0.10;0.10;;;13.20;99.90;226.50;231333.00;;;;5093203;28;20226;-69
2022/05/16 01:26:24;;;;;;;0.00;0.00;;;13.30;99.90;226.50;231333.00;;;;5093166;28;20188;-69
2022/05/16 01:28:54;;;;;;;0.00;0.00;;;13.20;99.90;226.50;231333.00;;;;5094144;28;20231;-72
2022/05/16 01:31:23;;;;;;;0.10;0.10;;;13.00;99.90;226.50;231333.00;;;;5089168;28;20221;-69
2022/05/16 01:33:55;;;;;;;0.10;0.10;;;13.20;99.90;226.50;231333.00;;;;5089948;28;20189;-69
2022/05/16 01:36:25;;;;;;;0.10;0.10;;;13.30;99.90;226.50;231333.00;;;;5081126;28;20208;-70
2022/05/16 01:38:55;;;;;;;0.10;0.10;;;13.40;99.90;226.50;231333.00;;;;5073658;28;20271;-69
2022/05/16 01:41:26;;;;;;;0.10;0.10;;;13.30;99.90;226.50;231333.00;;;;5075686;28;20263;-69
2022/05/16 01:44:00;;;;;;;0.10;0.10;;;13.10;99.90;226.50;231333.00;;;;5093483;28;20196;-69
2022/05/16 01:46:34;;;;;;;0.10;0.10;;;13.00;99.90;226.50;231333.00;;;;5074947;28;20201;-69
2022/05/16 01:49:03;;;;;;;0.10;0.10;;;12.80;99.90;226.50;231333.00;;;;5084312;28;20201;-68
2022/05/16 01:51:32;;;;;;;0.10;0.10;;;12.60;99.90;226.50;231333.00;;;;5093425;28;20238;-70
2022/05/16 01:54:03;;;;;;;0.10;0.10;;;12.40;99.90;226.50;231333.00;;;;5093086;28;20196;-70
2022/05/16 01:56:32;;;;;;;0.10;0.10;;;12.30;99.90;226.50;231333.00;;;;5091096;28;20276;-70
2022/05/16 01:59:03;;;;;;;0.00;0.00;;;12.30;99.90;226.50;231333.00;;;;5093273;28;20217;-70
2022/05/16 02:01:32;;;;;;;0.10;0.10;;;12.30;99.90;226.50;231333.00;;;;5092863;28;20220;-70
2022/05/16 02:04:02;;;;;;;0.10;0.10;;;12.30;99.90;226.50;231333.00;;;;5092085;28;20188;-70
2022/05/16 02:06:31;;;;;;;0.00;0.00;;;12.30;99.90;226.50;231333.00;;;;5092340;28;20200;-71
2022/05/16 02:09:01;;;;;;;0.00;0.00;;;12.40;99.90;226.50;231333.00;;;;5093194;28;20196;-70
2022/05/16 02:11:30;;;;;;;0.00;0.00;;;12.40;99.90;226.50;231333.00;;;;5093018;28;20217;-70
2022/05/16 02:13:58;;;;;;;0.10;0.10;;;12.30;99.90;226.50;231333.00;;;;5092662;28;20667;-71
2022/05/16 02:16:27;;;;;;;0.10;0.10;;;12.20;99.90;226.50;231333.00;;;;5092835;28;20727;-70
2022/05/16 02:18:56;;;;;;;0.08;0.08;;;12.20;99.90;226.50;231333.00;;;;5074730;28;20219;-71
2022/05/16 02:26:58;;;;;;;0.10;0.10;;;12.20;99.90;226.50;231333.00;;;;5092292;28;20658;-71
2022/05/16 02:29:26;;;;;;;0.10;0.10;;;12.10;99.90;226.50;231333.00;;;;5092242;28;20242;-71
2022/05/16 02:31:55;;;;;;;0.10;0.10;;;12.10;99.90;226.50;231333.00;;;;5092326;28;20714;-72
2022/05/16 02:34:24;;;;;;;0.10;0.10;;;12.20;99.90;226.50;231333.00;;;;5072405;28;20198;-71
2022/05/16 02:36:53;;;;;;;0.10;0.10;;;12.10;99.90;226.50;231333.00;;;;5085966;28;20315;-71
2022/05/16 02:39:24;;;;;;;0.10;0.10;;;12.10;99.90;226.50;231333.00;;;;5092255;28;20270;-70
2022/05/16 02:41:54;;;;;;;0.10;0.10;;;12.30;99.90;226.50;231333.00;;;;5078417;28;20201;-71
2022/05/16 02:44:23;;;;;;;0.10;0.10;;;12.30;99.90;226.50;231333.00;;;;5092474;28;20638;-71
2022/05/16 02:46:52;;;;;;;0.00;0.00;;;12.40;99.90;226.50;231333.00;;;;5090586;28;20228;-71
2022/05/16 02:49:22;;;;;;;0.10;0.10;;;12.50;99.90;226.50;231333.00;;;;5092508;28;20214;-71
2022/05/16 02:51:50;;;;;;;0.10;0.10;;;12.40;99.90;226.50;231333.00;;;;5092284;28;20205;-70
2022/05/16 02:54:19;;;;;;;0.00;0.00;;;12.20;99.90;226.50;231333.00;;;;5092508;28;20211;-70
2022/05/16 02:56:49;;;;;;;0.10;0.10;;;12.10;99.90;226.50;231333.00;;;;5091853;28;20246;-70
2022/05/16 02:59:18;;;;;;;0.10;0.10;;;12.10;99.90;226.50;231333.00;;;;5091881;28;20217;-71
2022/05/16 03:01:47;;;;;;;0.10;0.10;;;12.00;99.90;226.50;231333.00;;;;5072978;28;20205;-69
2022/05/16 03:04:16;;;;;;;0.10;0.10;;;12.00;99.90;226.50;231333.00;;;;5089450;28;20827;-70
2022/05/16 03:06:45;;;;;;;0.10;0.10;;;12.00;99.90;226.50;231333.00;;;;5082601;28;20193;-70
2022/05/16 03:09:14;;;;;;;0.10;0.10;;;11.90;99.90;226.50;231333.00;;;;5092003;28;20582;-71
2022/05/16 03:11:43;;;;;;;0.10;0.10;;;11.80;99.90;226.50;231333.00;;;;5084814;28;20206;-70
2022/05/16 03:14:13;;;;;;;0.10;0.10;;;11.90;99.90;226.50;231333.00;;;;5077094;28;20205;-70
2022/05/16 03:16:41;;;;;;;0.10;0.10;;;11.80;99.90;226.50;231333.00;;;;5082835;28;20201;-70
2022/05/16 03:19:15;;;;;;;0.10;0.10;;;11.70;99.90;226.50;231333.00;;;;5072277;28;20222;-72
2022/05/16 03:21:44;;;;;;;0.10;0.10;;;11.80;99.90;226.50;231333.00;;;;5091823;28;20212;-69
2022/05/16 03:24:13;;;;;;;0.10;0.10;;;11.70;99.90;226.50;231333.00;;;;5091459;28;20211;-71
2022/05/16 03:26:42;;;;;;;0.10;0.10;;;11.70;99.90;226.50;231333.00;;;;5091298;28;20189;-69
2022/05/16 03:29:13;;;;;;;0.10;0.10;;;11.60;99.90;226.50;231333.00;;;;5089923;28;20197;-69
2022/05/16 03:31:43;;;;;;;0.08;0.08;;;11.60;99.90;226.50;231333.00;;;;5090334;28;20221;-68
2022/05/16 03:34:13;;;;;;;0.10;0.10;;;11.70;99.90;226.50;231333.00;;;;5088425;28;20574;-69
2022/05/16 03:36:42;;;;;;;0.10;0.10;;;11.50;99.90;226.50;231333.00;;;;5080560;28;20250;-68
2022/05/16 03:41:57;;;;;;;0.10;0.10;;;11.50;99.90;226.50;231333.00;;;;5081246;28;20840;-69
2022/05/16 03:44:26;;;;;;;0.10;0.10;;;11.50;99.90;226.50;231333.00;;;;5076616;28;20533;-70
2022/05/16 03:46:55;;;;;;;0.10;0.10;;;11.50;99.90;226.50;231333.00;;;;5077017;28;20193;-71
2022/05/16 03:49:24;;;;;;;0.10;0.10;;;11.40;99.90;226.50;231333.00;;;;5091133;28;20250;-69
2022/05/16 03:51:53;;;;;;;0.10;0.10;;;11.40;99.90;226.50;231333.00;;;;5084371;28;20206;-68
2022/05/16 03:54:21;;;;;;;0.10;0.10;;;11.40;99.90;226.50;231333.00;;;;5072057;28;20209;-68
2022/05/16 03:56:49;;;;;;;0.10;0.10;;;11.40;99.90;226.50;231333.00;;;;5076528;28;20190;-70
2022/05/16 03:59:18;;;;;;;0.10;0.10;;;11.40;99.90;226.50;231333.00;;;;5073509;28;20202;-72
2022/05/16 04:01:49;;;;;;;0.10;0.10;;;11.40;99.90;226.50;231333.00;;;;5074185;28;20760;-69
2022/05/16 04:04:18;;;;;;;0.10;0.10;;;11.40;99.90;226.50;231333.00;;;;5072229;28;20255;-69
2022/05/16 04:06:46;;;;;;;0.10;0.10;;;11.30;99.90;226.50;231333.00;;;;5074471;28;20193;-68
2022/05/16 04:09:15;;;;;;;0.10;0.10;;;11.40;99.90;226.50;231333.00;;;;5085851;28;20305;-69
2022/05/16 04:11:43;;;;;;;0.10;0.10;;;11.30;99.90;226.50;231333.00;;;;5091773;28;20205;-69
2022/05/16 04:14:12;;;;;;;0.00;0.00;;;11.40;99.90;226.50;231333.00;;;;5089320;28;20189;-71
2022/05/16 04:16:41;;;;;;;0.00;0.00;;;11.40;99.90;226.50;231333.00;;;;5090704;28;20530;-69
2022/05/16 04:19:11;;;;;;;0.10;0.10;;;11.20;99.90;226.50;231333.00;;;;5088715;28;20279;-68
2022/05/16 04:21:40;;;;;;;0.10;0.10;;;11.10;99.90;226.50;231333.00;;;;5083164;28;20228;-71
2022/05/16 04:24:10;;;;;;;0.10;0.10;;;11.20;99.90;226.50;231333.00;;;;5091432;28;20197;-71
2022/05/16 04:26:41;;;;;;;0.10;0.10;;;11.20;99.90;226.50;231333.00;;;;5090132;28;20262;-73
2022/05/16 04:29:10;;;;;;;0.10;0.10;;;11.20;99.90;226.50;231333.00;;;;5088454;28;20369;-72
2022/05/16 04:31:39;;;;;;;0.10;0.10;;;11.20;99.90;226.50;231333.00;;;;5090655;28;20236;-71
2022/05/16 04:34:09;;;;;;;0.10;0.10;;;11.20;99.90;226.50;231333.00;;;;5091367;28;20280;-72
2022/05/16 04:36:43;;;;;;;0.10;0.10;;;11.20;99.90;226.50;231333.00;;;;5090389;28;20201;-73
2022/05/16 04:39:11;;;;;;;0.10;0.10;;;11.20;99.90;226.50;231333.00;;;;5088854;28;20201;-72
2022/05/16 04:44:26;;;;;;;0.10;0.10;;;11.30;99.90;226.50;231333.00;;;;5085177;28;20198;-72
2022/05/16 04:46:55;;;;;;;0.10;0.10;;;11.50;99.90;226.50;231333.00;;;;5070822;28;20845;-71
2022/05/16 04:49:23;;;;;;;0.00;0.00;;;11.70;99.90;226.50;231333.00;;;;5074657;28;20655;-71
2022/05/16 04:51:53;;;;;;;0.10;0.10;;;11.90;99.90;226.50;231333.00;;;;5074516;28;20213;-71
2022/05/16 04:54:22;;;;;;;0.10;0.10;;;12.00;99.90;226.50;231333.00;;;;5074669;28;20194;-71
2022/05/16 04:56:51;;;;;;;0.10;0.10;;;12.10;99.90;226.50;231333.00;;;;5083769;28;20185;-70
2022/05/16 04:59:21;;;;;;;0.10;0.10;;;12.10;99.90;226.50;231333.00;;;;5094885;28;20193;-72
2022/05/16 05:01:50;;;;;;;0.10;0.10;;;12.30;99.90;226.50;231333.00;;;;5094452;28;20209;-72
2022/05/16 05:04:19;;;;;;;0.10;0.10;;;12.40;99.90;226.50;231333.00;;;;5094515;28;20189;-72
2022/05/16 05:06:48;;;;;;;0.03;0.03;;;12.60;99.90;226.50;231333.00;;;;5093372;28;20200;-72
2022/05/16 05:09:18;;;;;;;0.10;0.10;;;12.70;99.90;226.50;231333.00;;;;5094990;28;20230;-72
2022/05/16 05:14:33;;;;;;;0.10;0.10;;;13.00;99.90;226.50;231333.00;;;;5061195;28;20709;-72
2022/05/16 05:17:03;;;;;;;0.00;0.00;;;13.10;99.90;226.50;231333.00;;;;5093703;28;20544;-71
2022/05/16 05:19:32;;;;;;;0.10;0.10;;;13.20;99.90;226.50;231333.00;;;;5093792;28;20207;-70
2022/05/16 05:22:01;;;;;;;0.10;0.10;;;13.30;99.90;226.50;231333.00;;;;5095512;28;20268;-68
2022/05/16 05:24:31;;;;;;;0.10;0.10;;;13.40;99.90;226.50;231333.00;;;;5097644;28;20185;-68
2022/05/16 05:26:59;;;;;;;0.10;0.10;;;13.50;99.90;226.50;231333.00;;;;5093578;28;20205;-68
2022/05/16 05:29:28;;;;;;;0.10;0.10;;;13.70;99.90;226.50;231333.00;;;;5091539;28;20185;-68
2022/05/16 05:31:57;;;;;;;0.10;0.10;;;13.80;99.90;226.50;231333.00;;;;5094624;28;20232;-70
2022/05/16 05:34:26;;;;;;;0.10;0.10;;;13.90;99.90;226.50;231333.00;;;;5091805;28;20552;-68
2022/05/16 05:36:56;;;;;;;0.08;0.08;;;14.10;99.90;226.50;231333.00;;;;5092018;28;20197;-68
2022/05/16 05:39:26;;;;;;;0.00;0.00;;;14.10;99.90;226.50;231333.00;;;;5094857;28;20192;-68
2022/05/16 05:41:56;;;;;;;0.00;0.00;;;14.20;99.90;226.50;231333.00;;;;5078378;28;20236;-68
2022/05/16 05:44:24;;;;;;;0.00;0.00;;;14.30;99.90;226.50;231333.00;;;;5118368;22;20197;-68
2022/05/16 05:46:53;;;;;;;0.10;0.10;;;14.50;99.90;226.50;231333.00;;;;5092557;28;20250;-69
2022/05/16 05:49:22;;;;;;;0.03;0.03;;;14.60;99.90;226.50;231333.00;;;;5093606;28;20250;-69
2022/05/16 05:51:51;;;;;;;0.00;0.00;;;14.70;99.90;226.50;231333.00;;;;5093173;28;20197;-69
2022/05/16 05:54:20;;;;;;;0.10;0.10;;;14.80;99.90;226.50;231333.00;;;;5092115;28;20674;-69
2022/05/16 05:56:48;;;;;;;0.00;0.00;;;14.90;99.90;226.50;231333.00;;;;5092591;28;20189;-69
2022/05/16 05:59:18;;;;;;;0.10;0.10;;;15.10;99.90;226.50;231333.00;;;;5092338;28;20185;-69
2022/05/16 06:01:47;;;;;;;0.05;0.05;;;15.20;99.90;226.50;231333.00;;;;5093271;28;20209;-69
2022/05/16 06:04:15;;;;;;;0.10;0.10;;;15.30;99.90;226.50;231333.00;;;;5093100;28;20196;-69
2022/05/16 06:06:46;;;;;;;0.00;0.00;;;15.40;99.90;226.50;231333.00;;;;5092414;28;20193;-69
2022/05/16 06:09:15;;;;;;;0.00;0.00;;;15.50;99.90;226.50;231333.00;;;;5093170;28;20764;-69
2022/05/16 06:11:43;;;;;;;0.00;0.00;;;15.70;99.90;226.50;231333.00;;;;5093375;28;20208;-69
2022/05/16 06:14:13;;;;;;;0.00;0.00;;;15.80;99.90;226.50;231333.00;;;;5093027;28;20193;-69
2022/05/16 06:16:44;;;;;;;0.00;0.00;;;16.00;99.90;226.50;231333.00;;;;5092538;28;20231;-69
2022/05/16 06:19:12;;;;;;;0.00;0.00;;;16.20;99.90;226.50;231333.00;;;;5093088;28;20653;-69
2022/05/16 06:21:41;;;;;;;0.08;0.08;;;16.30;99.90;226.50;231333.00;;;;5093331;28;20217;-69
2022/05/16 06:25:31;;;;;;;0.00;0.00;;;16.50;99.90;226.50;231333.00;;;;5093586;28;20201;-69
2022/05/16 06:26:58;;;;;;;0.00;0.00;;;16.70;99.90;226.50;231333.00;;;;5093980;28;20189;-69
2022/05/16 06:29:28;;;;;;;0.00;0.00;;;16.90;99.90;226.50;231333.00;;;;5095338;28;20207;-69
2022/05/16 06:31:57;;;;;;;0.10;0.10;;;17.20;99.90;226.50;231333.00;;;;5094754;28;20189;-69
2022/05/16 06:34:26;;;;;;;0.00;0.00;;;17.30;99.90;226.50;231333.00;;;;5095634;28;20275;-69
2022/05/16 06:36:54;;;;;;;0.00;0.00;;;17.50;99.90;226.50;231333.00;;;;5094814;28;20185;-68
2022/05/16 06:39:23;;;;;;;0.00;0.00;;;17.60;99.90;226.50;231333.00;;;;5094037;28;20196;-69
2022/05/16 06:41:51;;;;;;;0.00;0.00;;;17.70;99.90;226.50;231333.00;;;;5092452;28;20217;-69
2022/05/16 06:44:20;;;;;;;0.00;0.00;;;17.80;99.90;226.50;231333.00;;;;5091915;28;20284;-69
2022/05/16 06:46:48;;;;;;;0.00;0.00;;;18.20;99.90;226.50;231333.00;;;;5091866;28;20185;-69
2022/05/16 06:49:19;;;;;;;0.00;0.00;;;18.30;99.90;226.50;231333.00;;;;5091842;28;20644;-69
2022/05/16 06:51:49;;;;;;;0.00;0.00;;;18.50;99.90;226.50;231333.00;;;;5092901;28;20205;-69
2022/05/16 06:54:17;;;;;;;0.00;0.00;;;18.70;99.90;226.50;231333.00;;;;5093130;28;20188;-69
2022/05/16 06:56:46;;;;;;;0.00;0.00;;;18.90;99.90;226.50;231333.00;;;;5093518;28;20250;-69
2022/05/16 06:59:14;;;;;;;0.00;0.00;;;19.00;99.90;226.50;231333.00;;;;5093034;28;20960;-69
2022/05/16 07:01:42;;;;;;;0.00;0.00;;;19.10;99.90;226.50;231333.00;;;;5092264;28;20220;-69
2022/05/16 07:04:11;;;;;;;0.10;0.10;;;19.20;99.90;226.50;231333.00;;;;5090331;28;20661;-69
2022/05/16 07:06:41;;;;;;;0.10;0.10;;;19.30;99.90;226.50;231333.00;;;;5091581;28;20197;-69
2022/05/16 07:09:09;;;;;;;0.00;0.00;;;19.70;99.90;226.50;231333.00;;;;5092194;28;20197;-69
2022/05/16 07:11:37;;;;;;;0.00;0.00;;;19.90;99.90;226.50;231333.00;;;;5092325;28;20201;-69
2022/05/16 07:14:06;;;;;;;0.00;0.00;;;20.10;99.90;226.50;231333.00;;;;5091685;28;20731;-69
2022/05/16 07:16:34;;;;;;;0.00;0.00;;;20.30;99.90;226.50;231333.00;;;;5091796;28;20580;-69
2022/05/16 07:19:04;;;;;;;0.00;0.00;;;20.40;99.90;226.50;231333.00;;;;5090757;28;20657;-71
2022/05/16 07:21:32;;;;;;;0.00;0.00;;;20.60;99.90;226.50;231333.00;;;;5091315;28;20213;-70
2022/05/16 07:24:02;;;;;;;0.00;0.00;;;20.70;99.90;226.50;231333.00;;;;5091521;28;20201;-70
2022/05/16 07:29:17;;;;;;;0.00;0.00;;;21.00;99.90;226.50;231333.00;;;;5091412;28;20204;-70
2022/05/16 07:31:46;;;;;;;0.00;0.00;;;21.20;99.90;226.50;231333.00;;;;5091650;28;20188;-69
2022/05/16 07:34:15;;;;;;;0.00;0.00;;;21.30;99.90;226.50;231333.00;;;;5091058;28;20185;-69
2022/05/16 07:36:44;;;;;;;0.00;0.00;;;21.40;99.90;226.50;231333.00;;;;5090428;28;20189;-69
2022/05/16 07:39:14;;;;;;;0.00;0.00;;;21.40;99.90;226.50;231333.00;;;;5091295;28;20193;-70
2022/05/16 07:41:43;;;;;;;0.00;0.00;;;21.50;99.90;226.50;231333.00;;;;5091570;28;20212;-70
2022/05/16 07:44:12;;;;;;;0.00;0.00;;;21.60;99.70;226.50;231333.00;;;;5092918;28;20203;-69
2022/05/16 07:46:41;;;;;;;0.00;0.00;;;21.60;99.80;226.50;231333.00;;;;5090932;28;20549;-70
2022/05/16 07:49:10;;;;;;;0.00;0.00;;;21.80;99.90;226.50;231333.00;;;;5091722;28;20659;-70
2022/05/16 07:51:38;;;;;;;0.00;0.00;;;21.80;99.70;226.50;231333.00;;;;5091381;28;20231;-70
2022/05/16 07:54:08;;;;;;;0.00;0.00;;;22.00;99.60;226.50;231333.00;;;;5092300;28;20197;-71
2022/05/16 07:56:39;;;;;;;0.00;0.00;;;22.20;99.30;226.50;231333.00;;;;5089527;28;20254;-70
2022/05/16 07:59:09;;;;;;;0.00;0.00;;;22.30;98.80;226.50;231333.00;;;;5091431;28;20246;-70
2022/05/16 08:01:38;;;;;;;0.00;0.00;;;22.50;98.20;226.50;231333.00;;;;5092245;28;20181;-71
2022/05/16 08:04:08;;;;;;;0.00;0.00;;;22.60;98.30;226.50;231333.00;;;;5090341;28;20232;-70
2022/05/16 08:06:36;;;;;;;0.00;0.00;;;22.60;97.90;226.50;231333.00;;;;5090515;28;20627;-70
2022/05/16 08:11:52;;;;;;;0.00;0.00;;;22.80;97.70;226.50;231333.00;;;;5091480;28;20537;-70
2022/05/16 08:14:21;;;;;;;0.00;0.00;;;23.00;97.80;226.50;231333.00;;;;5091590;28;20243;-70
2022/05/16 08:16:50;;;;;;;0.00;0.00;;;23.00;98.00;226.50;231333.00;;;;5090556;28;20196;-70
2022/05/16 08:19:19;;;;;;;0.00;0.00;;;23.10;97.70;226.50;231333.00;;;;5091851;28;20220;-70
2022/05/16 08:21:48;;;;;;;0.00;0.00;;;23.20;97.20;226.50;231333.00;;;;5091206;28;20189;-70
2022/05/16 08:24:17;;;;;;;0.00;0.00;;;23.20;97.50;226.50;231333.00;;;;5095222;28;20201;-70
2022/05/16 08:26:45;;;;;;;0.00;0.00;;;23.30;97.50;226.50;231333.00;;;;5094689;28;20199;-70
2022/05/16 08:29:14;;;;;;;0.00;0.00;;;23.40;97.20;226.50;231333.00;;;;5094841;28;20197;-70
2022/05/16 08:31:43;;;;;;;0.00;0.00;;;23.40;97.00;226.50;231333.00;;;;5095219;28;20190;-70
2022/05/16 08:34:11;;;;;;;0.00;0.00;;;23.50;97.10;226.50;231333.00;;;;5094896;28;20181;-71
2022/05/16 08:42:14;;;;;;;0.00;0.00;;;23.90;96.90;226.50;231333.00;;;;5092936;28;20262;-70
2022/05/16 08:44:56;;;;;;;0.00;0.00;;;24.00;96.40;226.50;231333.00;;;;5094322;28;20233;-70
2022/05/16 08:47:44;;;;;;;0.00;0.00;;;24.20;96.30;226.50;231333.00;;;;5092253;28;20189;-70
2022/05/16 08:50:18;;;;;;;0.00;0.00;;;24.30;96.40;226.50;231333.00;;;;5094763;28;20212;-70
2022/05/16 08:52:54;;;;;;;0.00;0.00;;;24.30;96.50;226.50;231333.00;;;;5094524;28;20208;-70
2022/05/16 08:55:33;;;;;;;0.00;0.00;;;24.40;96.20;226.50;231333.00;;;;5092753;28;20212;-70
2022/05/16 08:58:10;;;;;;;0.00;0.00;;;24.40;96.10;226.50;231333.00;;;;5076203;28;20208;-70
2022/05/16 09:00:48;;;;;;;0.00;0.00;;;24.50;95.90;226.50;231333.00;;;;5094865;28;20189;-70
2022/05/16 09:03:26;;;;;;;0.00;0.00;;;24.50;96.20;226.50;231333.00;;;;5094051;28;20228;-70
2022/05/16 09:06:01;;;;;;;0.00;0.00;;;24.60;95.90;226.50;231333.00;;;;5093833;28;20270;-71
2022/05/16 09:08:42;;;;;;;0.00;0.00;;;24.80;95.50;226.50;231333.00;;;;5094182;28;20189;-70
2022/05/16 09:11:20;;;;;;;0.00;0.00;;;24.90;95.20;226.50;231333.00;;;;5093991;28;20246;-70
2022/05/16 09:13:55;;;;;;;0.00;0.00;;;25.10;95.20;226.50;231333.00;;;;5094117;28;20201;-70
2022/05/16 09:16:45;;;;;;;0.00;0.00;;;25.20;94.90;226.50;231333.00;;;;5093348;28;20200;-70
2022/05/16 09:19:50;;;;;;;0.00;0.00;;;25.20;95.00;226.50;231333.00;;;;5093808;28;20574;-70
2022/05/16 09:22:32;;;;;;;0.00;0.00;;;25.10;94.20;226.50;231333.00;;;;5090123;28;20220;-70
2022/05/16 09:25:08;;;;;;;0.00;0.00;;;25.00;94.20;226.50;231333.00;;;;5093620;28;20217;-70
2022/05/16 09:30:28;;;;;;;0.00;0.00;;;24.90;94.20;226.50;231333.00;;;;5093534;28;20665;-70
2022/05/16 09:33:05;;;;;;;0.00;0.00;;;25.10;94.80;226.50;231333.00;;;;5093622;28;20250;-70
2022/05/16 09:35:46;;;;;;;0.00;0.00;;;25.10;94.40;226.50;231333.00;;;;5093178;28;20216;-70
2022/05/16 09:38:16;;;;;;;0.00;0.00;;;25.30;94.80;226.50;231333.00;;;;5092040;28;20988;-70
2022/05/16 09:41:01;;;;;;;0.00;0.00;;;25.50;94.20;226.50;231333.00;;;;5093237;28;20197;-70
2022/05/16 09:43:36;;;;;;;0.00;0.00;;;25.60;93.90;226.50;231333.00;;;;5093326;28;20704;-70
2022/05/16 09:46:23;;;;;;;0.00;0.00;;;26.00;93.90;226.50;231333.00;;;;5092629;28;20554;-70
2022/05/16 09:49:07;;;;;;;0.00;0.00;;;26.30;93.60;226.50;231333.00;;;;5093149;28;20201;-70
2022/05/16 09:51:43;;;;;;;0.00;0.00;;;26.50;93.20;226.50;231333.00;;;;5093377;28;20565;-70
2022/05/16 09:54:18;;;;;;;0.00;0.00;;;26.60;93.00;226.50;231333.00;;;;5093286;28;20270;-72
2022/05/16 09:57:12;;;;;;;0.00;0.00;;;26.60;93.10;226.50;231333.00;;;;5092736;28;20254;-70
2022/05/16 09:59:46;;;;;;;0.00;0.00;;;26.70;92.60;226.50;231333.00;;;;5093706;28;20189;-70
2022/05/16 10:02:23;;;;;;;0.00;0.00;;;26.90;92.50;226.50;231333.00;;;;5092618;28;20205;-70
2022/05/16 10:04:59;;;;;;;0.00;0.00;;;27.10;92.40;226.50;231333.00;;;;5093459;28;20293;-70
2022/05/16 10:07:40;;;;;;;0.00;0.00;;;27.00;91.60;226.50;231333.00;;;;5092337;28;20193;-70
2022/05/16 10:10:15;;;;;;;0.00;0.00;;;26.80;91.30;226.50;231333.00;;;;5091681;28;20567;-70
2022/05/16 10:12:45;;;;;;;0.00;0.00;;;26.50;91.50;226.50;231333.00;;;;5093518;28;20201;-70
2022/05/16 10:15:14;;;;;;;0.00;0.00;;;26.40;90.70;226.50;231333.00;;;;5093331;28;20213;-70
2022/05/16 10:17:47;;;;;;;0.00;0.00;;;26.10;91.10;226.50;231333.00;;;;5092661;28;20269;-70
2022/05/16 10:20:22;;;;;;;0.00;0.00;;;26.00;91.70;226.50;231333.00;;;;5093049;28;20209;-70
2022/05/16 10:22:58;;;;;;;0.00;0.00;;;25.70;91.60;226.50;231333.00;;;;5093754;28;20242;-70
2022/05/16 10:25:39;;;;;;;0.00;0.00;;;25.50;91.90;226.50;231333.00;;;;5092654;28;20262;-70
2022/05/16 10:28:13;;;;;;;0.00;0.00;;;25.60;92.30;226.50;231333.00;;;;5091393;28;20218;-70
2022/05/16 10:33:47;;;;;;;0.00;0.00;;;25.50;90.40;226.50;231333.00;;;;5050206;28;20212;-70
2022/05/16 10:36:27;;;;;;;0.00;0.00;;;25.40;90.90;226.50;231333.00;;;;5083724;28;20236;-70
2022/05/16 10:39:04;;;;;;;0.00;0.00;;;25.20;91.60;226.50;231333.00;;;;5093027;28;20185;-70
2022/05/16 10:41:43;;;;;;;0.00;0.00;;;25.10;91.90;226.50;231333.00;;;;5093072;28;20197;-70
2022/05/16 10:44:29;;;;;;;0.00;0.00;;;25.10;91.30;226.50;231333.00;;;;5092899;28;20221;-70
2022/05/16 10:47:08;;;;;;;0.00;0.00;;;25.00;92.20;226.50;231333.00;;;;5090998;28;20193;-70
2022/05/16 10:49:44;;;;;;;0.00;0.00;;;25.00;92.30;226.50;231333.00;;;;5091314;28;20224;-70
2022/05/16 10:52:30;;;;;;;0.00;0.00;;;24.90;92.30;226.50;231333.00;;;;5090965;28;20203;-70
2022/05/16 10:54:59;;;;;;;0.00;0.00;;;24.80;92.70;226.50;231333.00;;;;5091018;28;20217;-70
2022/05/16 10:58:02;;;;;;;0.00;0.00;;;24.70;93.10;226.50;231333.00;;;;5090475;28;20246;-70
2022/05/16 11:00:39;;;;;;;0.00;0.00;;;24.70;93.50;226.50;231333.00;;;;5091815;28;20189;-70
2022/05/16 11:03:57;;;;;;;0.00;0.00;;;24.60;93.80;226.50;231333.00;;;;5090800;28;20298;-70
2022/05/16 11:06:49;;;;;;;0.00;0.00;;;24.60;94.20;226.50;231333.00;;;;5090861;28;20209;-70
2022/05/16 11:09:34;;;;;;;0.00;0.00;;;24.50;94.50;226.50;231333.00;;;;5091060;28;20715;-70
2022/05/16 11:12:14;;;;;;;0.00;0.00;;;24.50;94.50;226.50;231333.00;;;;5090966;28;20254;-70
2022/05/16 11:14:50;;;;;;;0.00;0.00;;;24.40;95.20;226.50;231333.00;;;;5091111;28;20330;-70
2022/05/16 11:17:26;;;;;;;0.00;0.00;;;24.40;95.30;226.50;231333.00;;;;5090613;28;20723;-70
2022/05/16 11:20:08;;;;;;;0.00;0.00;;;24.30;95.40;226.50;231333.00;;;;5095422;28;20184;-70
2022/05/16 11:22:41;;;;;;;0.00;0.00;;;24.20;96.60;226.50;231333.00;;;;5091687;28;20224;-70
2022/05/16 11:25:16;;;;;;;0.00;0.00;;;24.20;97.70;226.50;231333.00;;;;5090812;28;20225;-70
2022/05/16 11:28:12;;;;;;;0.00;0.00;;;24.20;98.10;226.50;231333.00;;;;5090443;28;20199;-70
2022/05/16 11:30:48;;;;;;;0.00;0.00;;;24.20;97.10;226.50;231333.00;;;;5090853;28;20234;-70
2022/05/16 11:33:34;;;;;;;0.00;0.00;;;24.30;97.20;226.50;231333.00;;;;5088992;28;20297;-70
2022/05/16 11:36:16;;;;;;;0.00;0.00;;;24.40;96.50;226.50;231333.00;;;;5090138;28;20620;-70